createdAt,value
2023-11-23T00:01:14.479Z,24.97
2023-11-23T00:03:44.218Z,25.57
2023-11-23T00:06:12.719Z,26.40
2023-11-23T00:08:43.096Z,27.13
2023-11-23T00:11:11.612Z,25.87
2023-11-23T00:13:39.891Z,24.33
2023-11-23T00:16:09.064Z,21.00
2023-11-23T00:18:37.458Z,26.03
2023-11-23T00:21:07.416Z,29.13
2023-11-23T00:23:35.688Z,28.27
2023-11-23T00:26:04.882Z,28.10
2023-11-23T00:28:33.153Z,25.10
2023-11-23T00:31:01.451Z,26.33
2023-11-23T00:33:29.778Z,26.13
2023-11-23T00:35:58.434Z,30.33
2023-11-23T00:38:28.091Z,26.07
2023-11-23T00:40:56.351Z,26.30
2023-11-23T00:43:25.855Z,24.00
2023-11-23T00:45:54.115Z,24.23
2023-11-23T00:48:22.573Z,28.20
2023-11-23T00:50:50.951Z,23.93
2023-11-23T00:53:19.197Z,33.37
2023-11-23T00:55:48.915Z,25.03
2023-11-23T00:58:17.719Z,28.77
2023-11-23T01:00:46.697Z,22.87
2023-11-23T01:03:15.078Z,27.50
2023-11-23T01:05:45.166Z,24.23
2023-11-23T01:08:15.828Z,26.67
2023-11-23T01:10:44.874Z,29.07
2023-11-23T01:13:15.266Z,23.47
2023-11-23T01:15:43.522Z,27.80
2023-11-23T01:18:11.903Z,21.23
2023-11-23T01:20:40.175Z,25.53
2023-11-23T01:23:08.438Z,22.30
2023-11-23T01:25:36.794Z,24.77
2023-11-23T01:28:05.303Z,24.17
2023-11-23T01:30:34.932Z,25.57
2023-11-23T01:33:03.716Z,27.10
2023-11-23T01:35:32.179Z,21.27
2023-11-23T01:38:00.440Z,25.30
2023-11-23T01:40:28.748Z,25.10
2023-11-23T01:43:03.047Z,28.03
2023-11-23T01:45:31.309Z,27.63
2023-11-23T01:48:01.308Z,22.57
2023-11-23T01:50:31.539Z,28.23
2023-11-23T01:53:00.492Z,31.23
2023-11-23T01:55:28.848Z,31.93
2023-11-23T01:57:59.047Z,23.53
2023-11-23T02:00:28.781Z,21.60
2023-11-23T02:02:58.171Z,27.03
2023-11-23T02:05:28.732Z,29.90
2023-11-23T02:07:57.022Z,26.83
2023-11-23T02:10:25.359Z,26.50
2023-11-23T02:12:54.939Z,29.47
2023-11-23T02:15:23.382Z,29.83
2023-11-23T02:18:02.610Z,25.43
2023-11-23T02:20:33.356Z,29.07
2023-11-23T02:23:02.209Z,22.83
2023-11-23T02:25:31.921Z,26.77
2023-11-23T02:28:00.166Z,31.80
2023-11-23T02:30:28.654Z,25.53
2023-11-23T02:32:56.077Z,24.40
2023-11-23T02:35:24.360Z,23.90
2023-11-23T02:37:52.621Z,26.53
2023-11-23T02:40:20.956Z,25.37
2023-11-23T02:42:50.611Z,21.47
2023-11-23T02:45:19.005Z,21.20
2023-11-23T02:47:47.325Z,19.73
2023-11-23T02:50:15.785Z,31.07
2023-11-23T02:52:44.104Z,24.47
2023-11-23T02:55:13.258Z,27.00
2023-11-23T02:57:43.312Z,24.47
2023-11-23T03:00:14.294Z,25.53
2023-11-23T03:02:42.733Z,22.93
2023-11-23T03:05:12.642Z,27.57
2023-11-23T03:07:41.053Z,21.97
2023-11-23T03:10:10.772Z,19.83
2023-11-23T03:12:39.074Z,19.80
2023-11-23T03:15:08.009Z,21.00
2023-11-23T03:17:37.825Z,22.23
2023-11-23T03:20:07.233Z,25.13
2023-11-23T03:22:35.460Z,22.40
2023-11-23T03:25:03.881Z,26.90
2023-11-23T03:27:34.305Z,21.67
2023-11-23T03:30:04.070Z,26.97
2023-11-23T03:32:33.503Z,23.47
2023-11-23T03:35:04.476Z,25.60
2023-11-23T03:37:32.812Z,20.77
2023-11-23T03:40:01.044Z,22.33
2023-11-23T03:42:29.349Z,22.60
2023-11-23T03:44:57.645Z,21.50
2023-11-23T03:47:25.894Z,25.03
2023-11-23T03:49:54.986Z,19.43
2023-11-23T03:52:24.654Z,24.90
2023-11-23T03:54:54.529Z,23.70
2023-11-23T03:57:22.801Z,17.60
2023-11-23T03:59:51.050Z,21.97
2023-11-23T04:02:19.684Z,20.20
2023-11-23T04:04:48.040Z,16.60
2023-11-23T04:07:16.268Z,23.20
2023-11-23T04:09:45.908Z,16.17
2023-11-23T04:12:14.200Z,19.83
2023-11-23T04:14:42.461Z,25.90
2023-11-23T04:17:10.679Z,19.67
2023-11-23T04:19:39.419Z,18.37
2023-11-23T04:22:08.040Z,23.87
2023-11-23T04:24:38.320Z,19.63
2023-11-23T04:27:08.048Z,19.60
2023-11-23T04:29:36.304Z,25.37
2023-11-23T04:32:05.372Z,16.77
2023-11-23T04:34:33.846Z,19.50
2023-11-23T04:37:02.217Z,17.27
2023-11-23T04:39:30.407Z,20.07
2023-11-23T04:41:58.765Z,17.70
2023-11-23T04:44:28.468Z,20.97
2023-11-23T04:46:56.751Z,16.87
2023-11-23T04:49:24.966Z,18.20
2023-11-23T04:51:53.304Z,17.40
2023-11-23T04:54:21.612Z,19.53
2023-11-23T04:56:51.977Z,18.90
2023-11-23T04:59:20.196Z,16.40
2023-11-23T05:01:49.882Z,19.50
2023-11-23T05:04:18.394Z,17.97
2023-11-23T05:06:46.691Z,19.30
2023-11-23T05:09:15.091Z,22.93
2023-11-23T05:11:43.390Z,16.40
2023-11-23T05:14:11.624Z,20.33
2023-11-23T05:16:39.996Z,16.70
2023-11-23T05:19:09.589Z,15.50
2023-11-23T05:21:37.972Z,16.23
2023-11-23T05:24:07.077Z,16.90
2023-11-23T05:26:35.343Z,16.90
2023-11-23T05:29:03.587Z,16.73
2023-11-23T05:31:31.876Z,14.23
2023-11-23T05:34:00.188Z,12.73
2023-11-23T05:36:30.286Z,15.53
2023-11-23T05:38:58.658Z,14.30
2023-11-23T05:41:26.930Z,16.40
2023-11-23T05:43:55.341Z,13.97
2023-11-23T05:46:23.628Z,11.73
2023-11-23T05:48:51.851Z,13.20
2023-11-23T05:51:21.687Z,17.07
2023-11-23T05:53:53.186Z,10.90
2023-11-23T05:56:22.012Z,13.73
2023-11-23T05:58:50.238Z,13.73
2023-11-23T06:01:18.621Z,15.13
2023-11-23T06:03:47.258Z,15.03
2023-11-23T06:06:22.809Z,14.20
2023-11-23T06:08:52.793Z,12.07
2023-11-23T06:11:21.128Z,11.10
2023-11-23T06:13:50.237Z,13.20
2023-11-23T06:16:18.522Z,18.07
2023-11-23T06:18:46.984Z,15.07
2023-11-23T06:21:15.598Z,15.90
2023-11-23T06:23:44.068Z,13.77
2023-11-23T06:26:13.706Z,13.33
2023-11-23T06:28:42.261Z,12.63
2023-11-23T06:31:10.474Z,12.60
2023-11-23T06:33:38.764Z,16.17
2023-11-23T06:36:07.680Z,13.40
2023-11-23T06:38:36.042Z,14.07
2023-11-23T06:41:04.864Z,14.40
2023-11-23T06:43:34.437Z,13.13
2023-11-23T06:46:02.683Z,12.87
2023-11-23T06:48:31.014Z,11.63
2023-11-23T06:50:59.281Z,17.23
2023-11-23T06:53:27.582Z,17.87
2023-11-23T06:55:56.037Z,15.73
2023-11-23T06:58:24.287Z,12.70
2023-11-23T07:00:53.980Z,14.10
2023-11-23T07:03:22.683Z,15.57
2023-11-23T07:05:51.754Z,14.83
2023-11-23T07:08:19.994Z,14.87
2023-11-23T07:10:48.225Z,16.43
2023-11-23T07:13:16.957Z,15.93
2023-11-23T07:15:45.191Z,16.90
2023-11-23T07:18:15.635Z,18.80
2023-11-23T07:20:45.606Z,14.57
2023-11-23T07:23:13.825Z,15.63
2023-11-23T07:25:44.784Z,16.60
2023-11-23T07:28:13.442Z,13.70
2023-11-23T07:30:41.806Z,15.50
2023-11-23T07:33:10.290Z,14.80
2023-11-23T07:35:40.265Z,14.57
2023-11-23T07:38:09.457Z,14.40
2023-11-23T07:40:37.804Z,12.47
2023-11-23T07:43:06.315Z,13.23
2023-11-23T07:45:34.597Z,13.90
2023-11-23T07:48:10.038Z,13.17
2023-11-23T07:50:40.165Z,15.83
2023-11-23T07:53:08.781Z,14.97
2023-11-23T07:55:38.133Z,13.40
2023-11-23T07:58:06.567Z,11.97
2023-11-23T08:00:38.741Z,12.97
2023-11-23T08:03:07.195Z,14.03
2023-11-23T08:05:36.925Z,14.80
2023-11-23T08:08:06.991Z,11.13
2023-11-23T08:10:35.267Z,13.13
2023-11-23T08:13:03.838Z,16.97
2023-11-23T08:15:32.399Z,10.37
2023-11-23T08:18:05.548Z,9.13
2023-11-23T08:20:38.405Z,13.77
2023-11-23T08:23:08.983Z,10.57
2023-11-23T08:25:38.927Z,8.83
2023-11-23T08:28:07.216Z,11.33
2023-11-23T08:30:35.613Z,10.03
2023-11-23T08:33:03.997Z,10.97
2023-11-23T08:35:32.413Z,12.40
2023-11-23T08:38:01.954Z,12.17
2023-11-23T08:40:33.052Z,13.20
2023-11-23T08:43:01.478Z,8.07
2023-11-23T08:45:30.067Z,11.93
2023-11-23T08:47:58.454Z,13.00
2023-11-23T08:50:26.952Z,13.57
2023-11-23T08:52:58.843Z,13.67
2023-11-23T08:55:27.398Z,12.30
2023-11-23T08:57:57.067Z,12.67
2023-11-23T09:00:26.432Z,10.83
2023-11-23T09:02:55.542Z,12.90
2023-11-23T09:05:24.748Z,12.30
2023-11-23T09:07:53.154Z,9.00
2023-11-23T09:10:24.600Z,8.90
2023-11-23T09:12:53.033Z,8.87
2023-11-23T09:15:24.178Z,11.40
2023-11-23T09:17:53.037Z,10.73
2023-11-23T09:20:21.336Z,10.00
2023-11-23T09:22:50.080Z,10.07
2023-11-23T09:25:19.706Z,10.40
2023-11-23T09:27:48.048Z,11.97
2023-11-23T09:30:16.971Z,7.60
2023-11-23T09:32:46.692Z,9.00
2023-11-23T09:35:15.002Z,9.27
2023-11-23T09:37:43.257Z,12.40
2023-11-23T09:40:18.964Z,10.40
2023-11-23T09:42:49.670Z,9.97
2023-11-23T09:45:24.095Z,10.03
2023-11-23T09:47:57.888Z,8.70
2023-11-23T09:50:32.823Z,9.17
2023-11-23T09:53:05.451Z,7.67
2023-11-23T09:55:33.797Z,10.53
2023-11-23T09:58:05.922Z,7.90
2023-11-23T10:00:36.676Z,7.67
2023-11-23T10:03:09.707Z,9.23
2023-11-23T10:05:39.922Z,10.87
2023-11-23T10:08:08.423Z,7.70
2023-11-23T10:10:40.108Z,10.73
2023-11-23T10:13:10.012Z,7.43
2023-11-23T10:15:38.654Z,6.40
2023-11-23T10:18:09.054Z,5.57
2023-11-23T10:20:39.949Z,7.33
2023-11-23T10:23:10.368Z,6.93
2023-11-23T10:25:38.735Z,8.10
2023-11-23T10:28:07.142Z,9.17
2023-11-23T10:30:39.053Z,7.50
2023-11-23T10:33:12.708Z,8.73
2023-11-23T10:35:46.677Z,8.73
2023-11-23T10:38:17.516Z,7.80
2023-11-23T10:40:46.712Z,10.73
2023-11-23T10:43:18.546Z,8.40
2023-11-23T10:45:49.881Z,7.30
2023-11-23T10:48:27.396Z,10.13
2023-11-23T10:50:59.813Z,7.60
2023-11-23T10:53:29.533Z,7.43
2023-11-23T10:56:00.781Z,8.83
2023-11-23T10:58:32.161Z,9.37
2023-11-23T11:01:02.634Z,7.40
2023-11-23T11:03:32.452Z,7.50
2023-11-23T11:06:09.263Z,6.90
2023-11-23T11:08:39.477Z,7.57
2023-11-23T11:11:12.210Z,7.17
2023-11-23T11:13:44.213Z,6.63
2023-11-23T11:16:15.784Z,7.90
2023-11-23T11:18:53.934Z,7.80
2023-11-23T11:21:25.301Z,11.07
2023-11-23T11:23:54.674Z,6.10
2023-11-23T11:26:25.576Z,6.60
2023-11-23T11:28:56.336Z,7.93
2023-11-23T11:31:32.441Z,9.03
2023-11-23T11:34:03.126Z,5.57
2023-11-23T11:36:32.939Z,7.23
2023-11-23T11:39:02.715Z,6.23
2023-11-23T11:41:32.979Z,8.40
2023-11-23T11:44:01.357Z,6.77
2023-11-23T11:46:30.176Z,6.90
2023-11-23T11:48:59.406Z,7.00
2023-11-23T11:51:29.917Z,6.27
2023-11-23T11:54:00.755Z,6.13
2023-11-23T11:56:30.054Z,8.20
2023-11-23T11:59:00.135Z,7.13
2023-11-23T12:01:28.578Z,7.40
2023-11-23T12:03:57.018Z,8.87
2023-11-23T12:06:25.374Z,7.37
2023-11-23T12:08:55.054Z,7.43
2023-11-23T12:11:25.809Z,6.47
2023-11-23T12:13:55.706Z,9.67
2023-11-23T12:16:33.516Z,6.63
2023-11-23T12:19:01.810Z,7.23
2023-11-23T12:21:32.250Z,8.27
2023-11-23T12:24:03.985Z,7.17
2023-11-23T12:26:34.528Z,7.83
2023-11-23T12:29:04.159Z,8.10
2023-11-23T12:31:33.709Z,9.50
2023-11-23T12:34:02.358Z,7.30
2023-11-23T12:36:30.564Z,9.80
2023-11-23T12:38:59.021Z,7.90
2023-11-23T12:41:31.146Z,7.77
2023-11-23T12:44:02.699Z,6.87
2023-11-23T12:46:31.314Z,9.17
2023-11-23T12:49:00.784Z,8.93
2023-11-23T12:51:29.209Z,11.87
2023-11-23T12:53:57.850Z,8.93
2023-11-23T12:56:26.279Z,10.40
2023-11-23T12:58:55.900Z,11.20
2023-11-23T13:01:24.687Z,7.77
2023-11-23T13:03:53.184Z,11.80
2023-11-23T13:06:22.618Z,9.73
2023-11-23T13:08:50.897Z,7.87
2023-11-23T13:11:19.272Z,12.10
2023-11-23T13:13:49.640Z,11.97
2023-11-23T13:16:21.772Z,10.23
2023-11-23T13:19:05.518Z,10.67
2023-11-23T13:21:38.415Z,9.17
2023-11-23T13:24:08.103Z,7.83
2023-11-23T13:26:36.564Z,7.27
2023-11-23T13:29:04.888Z,7.73
2023-11-23T13:31:36.812Z,10.17
2023-11-23T13:34:07.302Z,10.20
2023-11-23T13:36:36.836Z,8.00
2023-11-23T13:39:05.842Z,8.83
2023-11-23T13:41:34.611Z,7.70
2023-11-23T13:44:03.688Z,9.27
2023-11-23T13:46:33.778Z,8.33
2023-11-23T13:49:04.118Z,7.80
2023-11-23T13:51:34.660Z,10.17
2023-11-23T13:54:05.600Z,9.20
2023-11-23T13:56:35.500Z,8.73
2023-11-23T13:59:03.790Z,10.87
2023-11-23T14:01:32.161Z,11.13
2023-11-23T14:04:02.711Z,10.87
2023-11-23T14:06:32.620Z,9.63
2023-11-23T14:09:02.892Z,9.73
2023-11-23T14:11:31.200Z,10.73
2023-11-23T14:13:59.508Z,11.40
2023-11-23T14:16:30.848Z,12.57
2023-11-23T14:18:59.300Z,7.97
2023-11-23T14:21:29.994Z,9.77
2023-11-23T14:24:00.168Z,7.67
2023-11-23T14:26:29.893Z,8.43
2023-11-23T14:28:58.252Z,7.23
2023-11-23T14:31:26.735Z,10.53
2023-11-23T14:33:56.268Z,10.33
2023-11-23T14:36:24.654Z,11.13
2023-11-23T14:38:54.991Z,8.30
2023-11-23T14:41:26.055Z,10.60
2023-11-23T14:43:54.302Z,9.93
2023-11-23T14:46:22.819Z,7.27
2023-11-23T14:48:52.618Z,8.47
2023-11-23T14:51:21.408Z,9.23
2023-11-23T14:53:53.349Z,9.67
2023-11-23T14:56:30.500Z,7.43
2023-11-23T14:59:01.794Z,9.57
2023-11-23T15:01:30.316Z,12.03
2023-11-23T15:03:58.799Z,10.23
2023-11-23T15:06:27.568Z,7.40
2023-11-23T15:08:55.898Z,10.63
2023-11-23T15:11:25.346Z,9.07
2023-11-23T15:13:53.611Z,10.63
2023-11-23T15:16:23.383Z,9.90
2023-11-23T15:18:51.772Z,9.40
2023-11-23T15:21:20.229Z,11.83
2023-11-23T15:23:49.837Z,9.53
2023-11-23T15:26:18.193Z,11.80
2023-11-23T15:28:47.018Z,12.63
2023-11-23T15:31:16.894Z,10.30
2023-11-23T15:33:47.703Z,13.53
2023-11-23T15:36:16.563Z,10.00
2023-11-23T15:38:45.032Z,9.43
2023-11-23T15:41:13.880Z,11.13
2023-11-23T15:43:42.244Z,12.93
2023-11-23T15:46:12.904Z,10.40
2023-11-23T15:48:41.189Z,11.17
2023-11-23T15:51:15.587Z,15.27
2023-11-23T15:53:43.974Z,11.43
2023-11-23T15:56:16.718Z,8.53
2023-11-23T15:58:45.478Z,9.33
2023-11-23T16:01:14.451Z,8.20
2023-11-23T16:03:43.155Z,9.87
2023-11-23T16:06:13.248Z,9.83
2023-11-23T16:08:43.394Z,7.57
2023-11-23T16:11:12.230Z,9.50
2023-11-23T16:13:44.168Z,8.03
2023-11-23T16:16:12.611Z,10.87
2023-11-23T16:18:41.086Z,10.63
2023-11-23T16:21:11.264Z,11.80
2023-11-23T16:23:43.594Z,7.67
2023-11-23T16:26:12.104Z,9.23
2023-11-23T16:28:40.539Z,12.87
2023-11-23T16:31:08.874Z,9.60
2023-11-23T16:33:37.199Z,11.70
2023-11-23T16:36:05.784Z,9.03
2023-11-23T16:38:34.112Z,10.93
2023-11-23T16:41:03.813Z,9.57
2023-11-23T16:43:32.075Z,10.63
2023-11-23T16:46:00.450Z,8.83
2023-11-23T16:48:29.068Z,11.90
2023-11-23T16:50:57.475Z,9.83
2023-11-23T16:53:26.090Z,10.73
2023-11-23T16:55:54.399Z,10.97
2023-11-23T16:58:24.012Z,11.47
2023-11-23T17:00:54.045Z,8.93
2023-11-23T17:03:22.418Z,11.63
2023-11-23T17:05:52.542Z,14.30
2023-11-23T17:08:20.993Z,13.37
2023-11-23T17:10:50.211Z,12.27
2023-11-23T17:13:18.650Z,13.00
2023-11-23T17:15:48.322Z,12.60
2023-11-23T17:18:16.795Z,12.40
2023-11-23T17:20:46.180Z,12.93
2023-11-23T17:23:16.081Z,15.00
2023-11-23T17:25:44.758Z,11.10
2023-11-23T17:28:14.927Z,13.60
2023-11-23T17:30:43.665Z,12.67
2023-11-23T17:33:15.754Z,11.83
2023-11-23T17:35:44.277Z,14.17
2023-11-23T17:38:12.542Z,14.13
2023-11-23T17:40:42.867Z,13.60
2023-11-23T17:43:11.433Z,15.83
2023-11-23T17:45:39.796Z,14.43
2023-11-23T17:48:09.272Z,13.23
2023-11-23T17:50:41.295Z,13.97
2023-11-23T17:53:11.348Z,13.23
2023-11-23T17:55:39.835Z,15.97
2023-11-23T17:58:08.752Z,13.07
2023-11-23T18:00:39.970Z,12.77
2023-11-23T18:03:08.581Z,15.93
2023-11-23T18:05:43.275Z,12.87
2023-11-23T18:08:11.595Z,14.93
2023-11-23T18:10:40.188Z,13.40
2023-11-23T18:13:08.533Z,11.23
2023-11-23T18:15:37.510Z,14.00
2023-11-23T18:18:15.194Z,16.20
2023-11-23T18:20:52.979Z,15.07
2023-11-23T18:23:22.129Z,15.77
2023-11-23T18:25:50.470Z,16.20
2023-11-23T18:28:21.001Z,13.33
2023-11-23T18:30:51.728Z,14.07
2023-11-23T18:33:20.605Z,13.57
2023-11-23T18:35:49.224Z,11.70
2023-11-23T18:38:19.408Z,15.27
2023-11-23T18:40:48.794Z,12.53
2023-11-23T18:43:17.089Z,14.47
2023-11-23T18:45:45.406Z,15.20
2023-11-23T18:48:13.894Z,17.37
2023-11-23T18:50:42.274Z,12.13
2023-11-23T18:53:10.572Z,12.53
2023-11-23T18:55:40.332Z,11.87
2023-11-23T18:58:08.862Z,12.97
2023-11-23T19:00:37.880Z,14.20
2023-11-23T19:03:06.452Z,15.10
2023-11-23T19:05:35.776Z,10.70
2023-11-23T19:08:04.633Z,13.83
2023-11-23T19:10:33.421Z,12.70
2023-11-23T19:13:06.723Z,12.67
2023-11-23T19:15:36.292Z,11.27
2023-11-23T19:18:05.160Z,14.80
2023-11-23T19:20:35.246Z,10.87
2023-11-23T19:23:04.620Z,12.90
2023-11-23T19:25:34.997Z,12.90
2023-11-23T19:28:06.143Z,11.47
2023-11-23T19:30:35.120Z,13.30
2023-11-23T19:33:08.712Z,12.03
2023-11-23T19:35:37.693Z,11.40
2023-11-23T19:38:06.477Z,12.20
2023-11-23T19:40:36.263Z,11.73
2023-11-23T19:43:06.649Z,14.77
2023-11-23T19:45:36.051Z,11.53
2023-11-23T19:48:05.031Z,14.13
2023-11-23T19:50:34.656Z,10.40
2023-11-23T19:53:05.489Z,9.63
2023-11-23T19:55:34.744Z,12.53
2023-11-23T19:58:03.203Z,11.50
2023-11-23T20:00:33.051Z,13.97
2023-11-23T20:03:01.407Z,15.23
2023-11-23T20:05:29.812Z,13.03
2023-11-23T20:07:58.300Z,11.27
2023-11-23T20:10:26.916Z,11.93
2023-11-23T20:12:55.321Z,13.93
2023-11-23T20:15:23.669Z,9.83
2023-11-23T20:17:53.338Z,12.67
2023-11-23T20:20:21.764Z,12.63
2023-11-23T20:22:50.444Z,14.53
2023-11-23T20:25:19.048Z,10.50
2023-11-23T20:27:47.451Z,11.27
2023-11-23T20:30:16.492Z,13.30
2023-11-23T20:32:44.863Z,14.27
2023-11-23T20:35:14.539Z,13.87
2023-11-23T20:37:43.198Z,13.30
2023-11-23T20:40:12.852Z,10.73
2023-11-23T20:42:41.304Z,13.13
2023-11-23T20:45:11.050Z,12.03
2023-11-23T20:47:39.583Z,11.77
2023-11-23T20:50:09.813Z,13.20
2023-11-23T20:52:40.770Z,12.20
2023-11-23T20:55:12.499Z,14.50
2023-11-23T20:57:42.810Z,13.50
2023-11-23T21:00:13.352Z,13.47
2023-11-23T21:02:43.135Z,16.77
2023-11-23T21:05:13.103Z,9.77
2023-11-23T21:07:44.029Z,13.53
2023-11-23T21:10:13.233Z,11.87
2023-11-23T21:12:41.917Z,13.70
2023-11-23T21:15:11.183Z,13.13
2023-11-23T21:17:40.669Z,13.70
2023-11-23T21:20:10.610Z,15.13
2023-11-23T21:22:38.942Z,12.87
2023-11-23T21:25:10.462Z,20.43
2023-11-23T21:27:43.536Z,16.60
2023-11-23T21:30:12.736Z,14.60
2023-11-23T21:32:41.340Z,10.53
2023-11-23T21:35:10.176Z,14.33
2023-11-23T21:37:38.493Z,13.53
2023-11-23T21:40:10.913Z,16.10
2023-11-23T21:42:39.380Z,14.57
2023-11-23T21:45:09.025Z,13.37
2023-11-23T21:47:39.774Z,15.57
2023-11-23T21:50:09.866Z,13.27
2023-11-23T21:52:40.245Z,14.57
2023-11-23T21:55:11.634Z,14.20
2023-11-23T21:57:40.082Z,18.30
2023-11-23T22:00:10.506Z,14.97
2023-11-23T22:02:40.869Z,16.80
2023-11-23T22:05:10.166Z,14.63
2023-11-23T22:07:38.592Z,15.97
2023-11-23T22:10:09.699Z,13.93
2023-11-23T22:12:38.018Z,12.97
2023-11-23T22:15:08.165Z,12.43
2023-11-23T22:17:37.163Z,14.63
2023-11-23T22:20:06.540Z,11.90
2023-11-23T22:22:36.344Z,7.93
2023-11-23T22:25:05.764Z,10.70
2023-11-23T22:27:36.066Z,9.73
2023-11-23T22:30:05.337Z,14.10
2023-11-23T22:32:35.120Z,12.13
2023-11-23T22:35:04.087Z,13.67
2023-11-23T22:37:32.856Z,9.33
2023-11-23T22:40:01.592Z,8.27
2023-11-23T22:42:31.401Z,11.63
2023-11-23T22:45:01.728Z,9.13
2023-11-23T22:47:31.921Z,11.47
2023-11-23T22:50:00.334Z,10.23
2023-11-23T22:52:28.615Z,9.60
2023-11-23T22:54:56.927Z,10.57
2023-11-23T22:57:25.478Z,11.13
2023-11-23T22:59:53.718Z,8.17
2023-11-23T23:02:24.417Z,7.77
2023-11-23T23:04:52.882Z,8.27
2023-11-23T23:07:21.385Z,8.87
2023-11-23T23:09:49.652Z,13.03
2023-11-23T23:12:17.963Z,7.83
2023-11-23T23:14:46.184Z,8.30
2023-11-23T23:17:15.461Z,8.57
2023-11-23T23:19:45.354Z,18.67
2023-11-23T23:22:23.978Z,17.13
2023-11-23T23:24:55.175Z,17.60
2023-11-23T23:27:23.544Z,15.77
2023-11-23T23:29:51.960Z,15.17
2023-11-23T23:32:20.458Z,20.73
2023-11-23T23:34:50.053Z,23.33
2023-11-23T23:37:18.293Z,19.07
2023-11-23T23:39:46.639Z,20.60
2023-11-23T23:42:14.903Z,16.70
2023-11-23T23:44:43.112Z,13.73
2023-11-23T23:47:11.974Z,15.90
2023-11-23T23:49:40.505Z,20.23
2023-11-23T23:52:10.151Z,16.50
2023-11-23T23:54:38.503Z,20.47
2023-11-23T23:57:07.311Z,15.83
2023-11-23T23:59:36.176Z,16.40
